Time;durP1;ratioP1;P1;durP2;ratioP2;P2;SDS_P1;SDS_P2;PMS_P1;PMS_P2;Temp;Humidity;BMP_temperature;BMP_pressure;BME280_temperature;BME280_humidity;BME280_pressure;Samples;Min_cycle;Max_cycle;Signal;HPM_P1;HPM_P2
2021/12/08 00:00:14;;;;;;;14.10;8.57;;;-0.30;91.60;;;-1.93;94.48;96801.91;5015579;28;21046;-68
2021/12/08 00:02:41;;;;;;;11.40;7.70;;;-0.30;91.10;;;-1.95;94.10;96803.91;5020540;28;20816;-68
2021/12/08 00:05:11;;;;;;;11.17;8.50;;;-0.30;91.10;;;-1.93;94.60;96812.50;5016391;28;20470;-68
2021/12/08 00:07:39;;;;;;;12.20;7.40;;;-0.30;91.00;;;-1.90;94.11;96807.72;5017815;28;20567;-68
2021/12/08 00:10:15;;;;;;;12.27;8.43;;;-0.30;91.00;;;-2.04;94.15;96795.97;5015961;28;20546;-68
2021/12/08 00:13:02;;;;;;;11.83;8.77;;;-0.30;91.20;;;-1.91;93.96;96815.81;5020321;28;20537;-69
2021/12/08 00:15:30;;;;;;;10.97;9.30;;;-0.30;90.80;;;-1.94;94.24;96810.84;5021665;28;20447;-68
2021/12/08 00:17:57;;;;;;;11.00;8.57;;;-0.30;90.90;;;-2.00;94.58;96807.03;5025901;28;20544;-69
2021/12/08 00:20:28;;;;;;;12.53;8.90;;;-0.40;91.20;;;-1.98;94.10;96804.25;5020256;28;20497;-69
2021/12/08 00:22:55;;;;;;;11.70;9.07;;;-0.40;91.10;;;-2.01;94.04;96797.44;5017561;28;20466;-69
2021/12/08 00:25:22;;;;;;;13.67;8.93;;;-0.40;91.10;;;-2.01;93.92;96786.88;5019624;28;20462;-69
2021/12/08 00:27:49;;;;;;;11.80;9.50;;;-0.40;91.10;;;-2.08;94.22;96786.69;5017225;28;20454;-69
2021/12/08 00:30:18;;;;;;;12.70;9.30;;;-0.40;90.90;;;-2.24;94.80;96789.34;5024548;28;20517;-68
2021/12/08 00:32:45;;;;;;;14.63;10.70;;;-0.50;90.90;;;-2.16;95.02;96782.22;5017545;28;20580;-69
2021/12/08 00:35:13;;;;;;;17.20;10.37;;;-0.50;92.00;;;-2.04;95.17;96769.50;5023680;28;20451;-67
2021/12/08 00:37:42;;;;;;;15.60;10.57;;;-0.40;92.00;;;-2.09;94.77;96777.09;5018087;28;20578;-68
2021/12/08 00:40:13;;;;;;;14.80;9.83;;;-0.40;91.50;;;-2.14;94.99;96771.50;5027802;28;20533;-68
2021/12/08 00:42:40;;;;;;;14.60;10.73;;;-0.50;91.50;;;-2.06;94.44;96766.19;5020969;28;21174;-68
2021/12/08 00:45:11;;;;;;;15.97;10.40;;;-0.40;91.60;;;-2.02;94.82;96766.69;5018807;28;20479;-68
2021/12/08 00:47:39;;;;;;;13.03;9.50;;;-0.40;91.50;;;-1.97;94.32;96760.88;5023066;28;20466;-68
2021/12/08 00:50:09;;;;;;;13.97;10.60;;;-0.40;91.30;;;-1.99;94.45;96750.47;5026600;28;20510;-67
2021/12/08 00:52:37;;;;;;;14.20;9.67;;;-0.30;91.00;;;-1.98;94.36;96740.72;5020271;28;20458;-68
2021/12/08 00:55:08;;;;;;;13.20;10.47;;;-0.30;90.90;;;-1.90;94.09;96740.69;5027483;28;20477;-69
2021/12/08 00:57:36;;;;;;;12.87;10.27;;;-0.30;91.00;;;-1.92;94.54;96732.09;5017601;28;20480;-69
2021/12/08 01:00:10;;;;;;;15.70;10.67;;;-0.30;90.90;;;-1.95;94.04;96730.63;5017719;28;20459;-69
2021/12/08 01:02:39;;;;;;;19.80;10.50;;;-0.30;91.00;;;-1.82;94.07;96739.84;5019066;28;20549;-69
2021/12/08 01:05:07;;;;;;;12.20;9.90;;;-0.20;90.90;;;-1.91;94.34;96731.09;5018032;28;20472;-68
2021/12/08 01:07:34;;;;;;;16.13;10.70;;;-0.30;90.70;;;-1.94;94.48;96718.19;5015637;28;21241;-69
2021/12/08 01:10:01;;;;;;;16.47;11.40;;;-0.20;90.90;;;-1.87;94.35;96724.47;5017415;28;20539;-69
2021/12/08 01:12:30;;;;;;;14.37;10.50;;;-0.20;91.00;;;-1.83;94.04;96717.84;5017863;28;20502;-68
2021/12/08 01:14:57;;;;;;;16.67;11.00;;;-0.20;91.10;;;-1.76;94.71;96710.06;5015410;28;20532;-67
2021/12/08 01:17:24;;;;;;;20.67;12.17;;;-0.10;91.60;;;-1.53;94.00;96704.00;5017257;28;20459;-68
2021/12/08 01:19:51;;;;;;;16.77;11.70;;;0.00;91.70;;;-1.55;93.65;96698.91;5014802;28;20573;-68
2021/12/08 01:22:18;;;;;;;17.00;11.40;;;0.00;91.00;;;-1.51;92.63;96697.56;5019510;28;20459;-68
2021/12/08 01:24:45;;;;;;;13.43;11.10;;;0.10;90.30;;;-1.55;92.97;96682.16;5016588;28;20506;-69
2021/12/08 01:27:12;;;;;;;14.80;10.63;;;0.20;89.90;;;-1.37;93.30;96679.28;5014152;28;20871;-69
2021/12/08 01:29:40;;;;;;;15.10;11.17;;;0.20;90.10;;;-1.32;92.19;96683.06;5021541;28;20503;-67
2021/12/08 01:32:08;;;;;;;15.70;11.27;;;0.30;89.20;;;-1.26;92.53;96681.56;5021172;28;20879;-68
2021/12/08 01:34:36;;;;;;;15.37;10.57;;;0.40;89.30;;;-1.29;92.84;96671.28;5013841;28;20553;-68
2021/12/08 01:37:03;;;;;;;13.83;10.60;;;0.40;88.70;;;-1.18;91.63;96673.56;5017036;28;20887;-68
2021/12/08 01:39:30;;;;;;;14.27;11.03;;;0.40;88.40;;;-1.09;91.65;96686.78;5014199;28;20566;-69
2021/12/08 01:41:57;;;;;;;15.13;10.73;;;0.50;88.00;;;-1.11;91.21;96694.09;5014745;28;21066;-69
2021/12/08 01:47:10;;;;;;;14.60;10.53;;;0.40;86.80;;;-1.24;91.19;96673.41;5013904;28;20458;-68
2021/12/08 01:49:37;;;;;;;13.90;10.77;;;0.40;87.00;;;-1.37;92.23;96681.94;5015685;28;20588;-68
2021/12/08 01:52:05;;;;;;;17.87;11.20;;;0.30;87.00;;;-1.44;92.25;96669.41;5013846;28;20471;-67
2021/12/08 01:54:32;;;;;;;13.67;11.53;;;0.30;88.50;;;-1.40;92.64;96661.09;5017009;28;20756;-67
2021/12/08 01:57:00;;;;;;;19.00;12.47;;;0.30;89.10;;;-1.32;92.44;96653.09;5015909;28;20499;-67
2021/12/08 01:59:27;;;;;;;14.90;11.10;;;0.30;89.00;;;-1.32;92.11;96651.28;5013861;28;20460;-68
2021/12/08 02:01:54;;;;;;;17.83;11.40;;;0.30;88.80;;;-1.27;92.21;96664.00;5015800;28;20574;-68
2021/12/08 02:04:22;;;;;;;17.23;11.37;;;0.30;88.80;;;-1.27;92.09;96632.22;5010897;28;20458;-68
2021/12/08 02:06:49;;;;;;;16.97;11.67;;;0.40;87.60;;;-1.22;91.84;96634.31;5011878;28;20486;-68
2021/12/08 02:09:18;;;;;;;16.30;11.23;;;0.40;87.60;;;-1.12;91.73;96639.41;5016057;28;20501;-68
2021/12/08 02:11:48;;;;;;;13.87;10.37;;;0.50;88.00;;;-1.11;90.88;96627.81;5012547;28;20467;-68
2021/12/08 02:14:15;;;;;;;15.10;11.20;;;0.50;86.50;;;-0.99;90.73;96626.38;5013350;28;20795;-68
2021/12/08 02:16:42;;;;;;;14.93;9.73;;;0.60;86.00;;;-1.02;90.39;96616.13;5012874;28;22142;-68
2021/12/08 02:19:09;;;;;;;14.27;10.30;;;0.60;85.90;;;-0.92;90.75;96623.84;5014908;28;20564;-69
2021/12/08 02:21:41;;;;;;;14.67;10.70;;;0.60;85.70;;;-0.89;90.37;96615.56;5020854;28;20556;-71
2021/12/08 02:24:11;;;;;;;11.77;9.23;;;0.70;85.30;;;-0.90;89.51;96622.69;5019807;28;20452;-69
2021/12/08 02:26:41;;;;;;;13.37;10.20;;;0.70;84.60;;;-0.83;89.22;96632.56;5032392;28;20475;-68
2021/12/08 02:29:13;;;;;;;14.40;10.00;;;0.80;83.30;;;-0.83;89.12;96636.06;5020573;28;20465;-68
2021/12/08 02:31:47;;;;;;;14.17;9.50;;;0.80;82.80;;;-0.78;88.83;96630.22;5037150;28;20451;-68
2021/12/08 02:48:00;;;;;;;10.70;6.57;;;1.10;79.70;;;-0.53;87.11;96624.69;5012613;28;20448;-69
2021/12/08 02:50:30;;;;;;;7.07;4.93;;;1.10;80.30;;;-0.41;85.18;96630.44;5009919;28;20452;-68
2021/12/08 02:53:00;;;;;;;7.70;6.17;;;1.20;78.50;;;-0.32;85.12;96619.56;5015940;28;20511;-69
2021/12/08 02:55:29;;;;;;;9.90;6.50;;;1.30;78.50;;;-0.37;84.59;96616.63;5014470;28;20455;-68
2021/12/08 02:57:57;;;;;;;5.87;5.10;;;1.30;77.50;;;-0.25;84.47;96609.03;5013574;28;20498;-67
2021/12/08 03:00:26;;;;;;;8.20;5.60;;;1.30;77.40;;;-0.24;84.31;96620.47;5016613;28;20895;-69
2021/12/08 03:02:56;;;;;;;8.60;4.67;;;1.40;77.40;;;-0.24;84.12;96617.81;5018071;28;20451;-69
2021/12/08 03:05:25;;;;;;;6.33;5.10;;;1.40;76.70;;;-0.16;83.24;96620.38;5018431;28;20882;-68
2021/12/08 03:07:52;;;;;;;6.27;5.63;;;1.40;76.20;;;-0.14;83.32;96626.34;5015423;28;20538;-69
2021/12/08 03:10:25;;;;;;;6.17;5.00;;;1.50;76.30;;;-0.18;83.34;96617.91;5012544;28;20475;-69
2021/12/08 03:12:52;;;;;;;5.60;4.90;;;1.50;76.10;;;-0.09;83.04;96623.16;5012679;28;20832;-69
2021/12/08 03:15:20;;;;;;;10.33;5.23;;;1.50;76.00;;;-0.05;82.26;96629.72;5012111;28;20470;-68
2021/12/08 03:17:47;;;;;;;6.37;5.60;;;1.50;75.60;;;-0.13;82.71;96643.09;5012707;28;20944;-70
2021/12/08 03:20:23;;;;;;;5.93;4.57;;;1.50;75.50;;;-0.10;82.29;96635.59;5010994;28;20461;-68
2021/12/08 03:22:52;;;;;;;9.40;6.00;;;1.50;75.40;;;-0.15;82.83;96652.09;5015971;28;20586;-69
2021/12/08 03:25:23;;;;;;;8.50;5.97;;;1.50;75.40;;;-0.08;82.67;96652.16;5013712;28;20994;-69
2021/12/08 03:28:02;;;;;;;6.83;5.43;;;1.50;75.50;;;-0.03;82.85;96656.94;4999976;28;20504;-69
2021/12/08 03:30:36;;;;;;;7.20;5.87;;;1.50;75.50;;;0.02;82.41;96643.13;5026914;28;21279;-68
2021/12/08 03:33:03;;;;;;;6.50;5.47;;;1.60;75.20;;;-0.05;82.02;96637.69;5016286;28;20447;-67
2021/12/08 03:35:31;;;;;;;10.63;6.17;;;1.60;75.00;;;0.02;82.39;96645.75;5025947;28;20905;-68
2021/12/08 03:37:59;;;;;;;7.30;5.97;;;1.60;75.30;;;0.03;82.18;96650.06;5016429;28;20482;-68
2021/12/08 03:40:28;;;;;;;7.07;5.67;;;1.60;75.00;;;-0.36;81.96;96591.72;5015576;28;20546;-68
2021/12/08 03:42:58;;;;;;;6.50;5.80;;;1.60;74.80;;;0.04;82.04;96655.22;5011731;28;20479;-68
2021/12/08 03:45:31;;;;;;;10.47;6.37;;;1.70;74.70;;;0.01;82.50;96660.06;5014573;28;20580;-68
2021/12/08 03:48:03;;;;;;;6.30;5.70;;;1.60;74.80;;;0.03;81.72;96663.34;5013593;28;20467;-71
2021/12/08 03:50:33;;;;;;;6.43;5.67;;;1.60;74.40;;;0.04;81.86;96673.81;5013783;28;20466;-69
2021/12/08 03:53:00;;;;;;;7.73;5.60;;;1.60;74.50;;;0.10;81.66;96659.78;5013999;28;20467;-69
2021/12/08 03:55:29;;;;;;;6.60;5.40;;;1.70;74.80;;;0.08;81.76;96645.06;5015191;28;20474;-69
2021/12/08 03:57:56;;;;;;;6.67;5.80;;;1.70;74.60;;;-0.02;82.64;96647.97;5008660;28;20542;-68
2021/12/08 04:00:29;;;;;;;8.53;5.87;;;1.60;74.70;;;0.18;81.67;96658.88;5020594;28;20583;-68
2021/12/08 04:02:58;;;;;;;6.23;5.63;;;1.70;74.70;;;0.15;81.70;96672.53;5023576;28;20467;-68
2021/12/08 04:05:39;;;;;;;7.07;5.80;;;1.70;74.40;;;0.10;82.23;96665.09;5017384;28;20493;-69
2021/12/08 04:08:15;;;;;;;6.73;5.77;;;1.70;74.60;;;0.08;81.75;96661.81;5019639;28;20459;-68
2021/12/08 04:10:44;;;;;;;6.73;5.70;;;1.70;74.30;;;-0.02;82.63;96661.22;5015750;28;20469;-68
2021/12/08 04:13:11;;;;;;;6.43;5.80;;;1.60;74.90;;;0.04;82.17;96663.19;5018475;28;20558;-69
2021/12/08 04:15:38;;;;;;;8.37;5.60;;;1.70;74.70;;;-0.02;82.53;96651.44;5016141;28;20548;-69
2021/12/08 04:18:06;;;;;;;8.23;5.90;;;1.60;74.80;;;0.04;81.71;96644.59;5016191;28;20549;-68
2021/12/08 04:20:37;;;;;;;8.20;5.70;;;1.60;74.60;;;-0.02;82.45;96656.75;5023286;28;20453;-68
2021/12/08 04:23:07;;;;;;;6.83;5.67;;;1.60;74.70;;;0.09;82.70;96646.69;5020009;28;20464;-68
2021/12/08 04:25:39;;;;;;;7.50;6.30;;;1.60;75.00;;;0.05;81.92;96640.09;5018528;28;20512;-69
2021/12/08 04:28:12;;;;;;;7.63;5.80;;;1.70;74.70;;;0.09;82.10;96638.72;5008521;28;20464;-68
2021/12/08 04:30:45;;;;;;;8.17;6.13;;;1.70;74.70;;;0.07;82.51;96643.38;5017779;28;20457;-68
2021/12/08 04:33:12;;;;;;;7.90;6.20;;;1.70;74.90;;;0.06;82.91;96639.06;5017908;28;20517;-68
2021/12/08 04:35:42;;;;;;;8.50;6.57;;;1.70;75.10;;;0.17;81.82;96637.81;5018127;28;20534;-68
2021/12/08 04:38:13;;;;;;;9.30;7.13;;;1.70;74.70;;;0.11;81.69;96623.44;5034606;28;20575;-68
2021/12/08 04:40:57;;;;;;;8.93;5.70;;;1.70;74.50;;;0.11;82.05;96620.78;5018262;28;20447;-68
2021/12/08 04:43:32;;;;;;;9.73;5.60;;;1.70;74.50;;;0.10;82.26;96621.78;5017117;28;20478;-68
2021/12/08 04:46:12;;;;;;;7.13;5.93;;;1.70;74.80;;;0.14;81.72;96617.75;5014288;28;20469;-69
2021/12/08 04:48:59;;;;;;;7.00;6.30;;;1.70;74.50;;;0.05;82.47;96614.38;5013798;28;20467;-68
2021/12/08 04:51:43;;;;;;;7.43;6.73;;;1.70;74.90;;;0.16;81.57;96618.38;5018445;28;20454;-68
2021/12/08 05:00:41;;;;;;;8.90;6.83;;;1.70;74.20;;;0.10;82.11;96613.81;5008740;28;20458;-69
2021/12/08 05:06:19;;;;;;;8.87;6.33;;;1.70;74.60;;;0.06;82.21;96620.47;5014530;28;20482;-69
2021/12/08 05:08:49;;;;;;;6.50;5.90;;;1.70;74.60;;;0.21;82.54;96623.97;5030624;28;20509;-68
2021/12/08 05:11:25;;;;;;;7.13;6.43;;;1.80;75.20;;;0.19;82.76;96614.56;5014676;28;20576;-68
2021/12/08 05:13:56;;;;;;;7.83;6.60;;;1.80;75.10;;;0.13;82.05;96594.84;5018861;28;21330;-69
2021/12/08 05:16:28;;;;;;;8.07;6.50;;;1.80;75.00;;;0.13;81.54;96605.47;5015704;28;20466;-69
2021/12/08 05:18:59;;;;;;;11.30;6.40;;;1.80;74.50;;;0.02;82.16;96600.63;5018444;28;20955;-68
2021/12/08 05:21:32;;;;;;;8.90;6.03;;;1.70;74.40;;;0.07;82.23;96612.34;5017502;28;20459;-68
2021/12/08 05:24:07;;;;;;;9.00;7.67;;;1.70;74.50;;;0.12;82.39;96609.16;5017149;28;20546;-70
2021/12/08 05:26:38;;;;;;;9.00;6.80;;;1.70;74.70;;;0.09;82.41;96610.31;5018004;28;20569;-68
2021/12/08 05:29:10;;;;;;;11.73;7.20;;;1.70;75.00;;;0.07;83.21;96615.00;5017654;28;20469;-68
2021/12/08 05:31:38;;;;;;;11.33;7.30;;;1.70;75.40;;;0.06;83.63;96623.13;5028985;28;20455;-68
2021/12/08 05:34:07;;;;;;;8.30;6.90;;;1.60;75.70;;;0.11;83.55;96613.63;5015924;28;20535;-68
2021/12/08 05:36:35;;;;;;;8.30;6.07;;;1.70;76.00;;;0.34;82.91;96610.06;5017110;28;20517;-68
2021/12/08 05:39:09;;;;;;;7.67;6.90;;;1.80;76.10;;;0.12;83.55;96617.13;5018321;28;20519;-68
2021/12/08 05:41:40;;;;;;;8.07;6.80;;;1.80;76.10;;;0.11;84.04;96603.00;5015201;28;20461;-68
2021/12/08 05:44:09;;;;;;;23.00;13.47;;;1.80;76.40;;;0.16;84.51;96609.63;5019775;28;20458;-68
2021/12/08 05:46:42;;;;;;;9.50;7.50;;;1.70;77.20;;;0.03;85.37;96615.53;5022490;28;20586;-68
2021/12/08 05:49:13;;;;;;;7.93;7.13;;;1.60;77.50;;;-0.05;85.33;96609.31;5017565;28;21017;-69
2021/12/08 05:51:43;;;;;;;10.10;6.90;;;1.60;77.80;;;-0.21;86.14;96612.16;5012348;28;20545;-68
2021/12/08 05:54:15;;;;;;;10.53;7.80;;;1.50;78.30;;;-0.22;87.07;96610.50;5016619;28;20962;-68
2021/12/08 05:56:43;;;;;;;10.27;7.60;;;1.40;79.60;;;-0.19;86.70;96607.50;5016219;28;20829;-68
2021/12/08 05:59:14;;;;;;;8.70;7.50;;;1.40;79.80;;;-0.23;87.56;96619.44;5016258;28;20474;-68
2021/12/08 06:01:48;;;;;;;9.80;7.97;;;1.40;80.70;;;-0.16;87.72;96612.44;5020242;28;20487;-69
2021/12/08 06:04:16;;;;;;;14.60;7.67;;;1.40;80.90;;;-0.30;88.68;96612.22;5020685;28;20463;-68
2021/12/08 06:06:45;;;;;;;12.17;7.90;;;1.40;81.40;;;-0.26;89.18;96609.19;5025494;28;20550;-68
2021/12/08 06:09:13;;;;;;;11.70;8.63;;;1.30;82.60;;;-0.34;89.47;96610.09;5017921;28;20462;-68
2021/12/08 06:11:41;;;;;;;10.67;8.57;;;1.30;82.80;;;-0.21;89.16;96605.00;5023523;28;20490;-69
2021/12/08 06:14:09;;;;;;;10.60;8.80;;;1.30;83.90;;;-0.30;89.59;96606.91;5016590;28;21105;-68
2021/12/08 06:16:40;;;;;;;13.50;8.83;;;1.40;83.70;;;-0.35;90.80;96604.00;5013393;28;20464;-67
2021/12/08 06:19:11;;;;;;;12.43;10.40;;;1.30;85.80;;;-0.44;91.88;96615.69;5017945;28;20482;-68
2021/12/08 06:21:40;;;;;;;15.80;9.93;;;1.20;87.50;;;-0.43;91.36;96574.88;5020705;28;20817;-78
2021/12/08 06:24:12;;;;;;;14.40;9.53;;;1.40;87.20;;;-0.25;91.71;96601.06;5034312;28;20552;-76
2021/12/08 06:26:40;;;;;;;16.23;10.20;;;1.40;88.00;;;-0.80;92.61;96558.78;5029673;28;20466;-76
2021/12/08 06:29:12;;;;;;;13.40;10.47;;;1.30;88.30;;;-0.51;92.84;96615.56;5031561;28;20462;-77
2021/12/08 06:31:40;;;;;;;12.70;9.77;;;1.20;89.10;;;-0.46;92.90;96612.38;5032704;28;20455;-76
2021/12/08 06:34:09;;;;;;;16.50;10.97;;;1.20;90.10;;;-0.44;92.85;96605.06;5030758;28;20513;-76
2021/12/08 06:36:42;;;;;;;13.00;9.93;;;1.20;89.30;;;-0.29;92.48;96611.22;5024637;28;20472;-76
2021/12/08 06:39:15;;;;;;;17.80;10.03;;;1.30;88.80;;;-0.34;93.13;96616.25;5046692;28;20531;-75
2021/12/08 06:41:49;;;;;;;15.23;10.27;;;1.30;90.10;;;-0.36;92.81;96612.97;5028131;28;20569;-76
2021/12/08 06:44:21;;;;;;;12.70;9.60;;;1.30;89.60;;;-0.59;93.32;96597.88;5031837;28;20893;-75
2021/12/08 06:46:50;;;;;;;13.63;10.17;;;1.20;90.20;;;-0.54;93.27;96607.13;5036484;28;20541;-76
2021/12/08 06:49:20;;;;;;;15.77;12.75;;;1.10;90.10;;;-0.51;94.28;96598.84;5027872;28;20558;-72
2021/12/08 06:51:53;;;;;;;13.47;12.07;;;1.10;90.90;;;-0.49;93.54;96597.63;5025805;28;20271;-71
2021/12/08 06:54:25;;;;;;;16.33;11.20;;;1.20;90.50;;;-0.38;93.11;96595.56;5026863;28;20477;-71
2021/12/08 06:56:58;;;;;;;12.33;10.43;;;1.20;90.20;;;-0.41;93.89;96578.16;5021774;28;20544;-70
2021/12/08 06:59:31;;;;;;;12.77;10.20;;;1.20;90.70;;;-0.46;93.36;96584.00;5016504;28;20558;-71
2021/12/08 07:02:09;;;;;;;14.30;10.90;;;1.20;89.90;;;-0.46;93.24;96588.50;5025063;28;20463;-71
2021/12/08 07:04:55;;;;;;;14.87;10.50;;;1.20;90.10;;;-0.42;93.23;96592.44;5020016;28;20553;-70
2021/12/08 07:07:26;;;;;;;14.87;11.13;;;1.20;90.20;;;-0.46;93.06;96612.38;5021888;28;20966;-71
2021/12/08 07:10:00;;;;;;;15.17;11.67;;;1.20;90.30;;;-0.46;92.88;96623.00;5025838;28;20507;-71
2021/12/08 07:12:32;;;;;;;16.83;12.60;;;1.20;89.70;;;-0.45;92.82;96614.03;5012112;28;20452;-70
2021/12/08 07:15:08;;;;;;;14.70;11.60;;;1.20;89.50;;;-0.36;92.55;96605.00;5011274;28;20557;-70
2021/12/08 07:17:40;;;;;;;16.77;13.10;;;1.30;89.20;;;-0.15;92.19;96608.75;5021328;28;20465;-72
2021/12/08 07:20:25;;;;;;;15.83;12.37;;;1.30;89.50;;;-0.16;91.87;96615.09;5023624;28;20459;-77
2021/12/08 07:22:54;;;;;;;13.80;11.40;;;1.40;88.50;;;-0.21;91.05;96594.38;5029894;28;20446;-75
2021/12/08 07:25:25;;;;;;;17.07;11.63;;;1.40;87.00;;;-0.20;91.18;96608.50;5024045;28;20541;-77
2021/12/08 07:27:54;;;;;;;18.30;11.30;;;1.40;86.10;;;-0.19;91.04;96602.19;5024090;28;20481;-80
2021/12/08 07:30:28;;;;;;;13.97;11.63;;;1.50;86.90;;;-0.23;90.64;96593.75;5024238;28;20471;-77
2021/12/08 07:32:55;;;;;;;18.13;12.27;;;1.50;86.60;;;-0.17;90.95;96600.16;5025781;28;20549;-77
2021/12/08 07:35:31;;;;;;;14.30;11.50;;;1.40;86.50;;;-0.34;91.14;96595.03;5024458;28;20563;-77
2021/12/08 07:37:59;;;;;;;14.10;10.60;;;1.40;86.30;;;-0.05;90.24;96593.41;5020437;28;20510;-78
2021/12/08 07:40:32;;;;;;;16.30;11.33;;;1.50;86.30;;;-0.05;89.58;96598.72;5021995;28;20490;-76
2021/12/08 07:43:02;;;;;;;18.47;10.33;;;1.50;84.70;;;-0.22;90.84;96591.94;5029953;28;20443;-76
2021/12/08 07:45:36;;;;;;;12.73;10.90;;;1.50;85.60;;;-0.06;89.77;96609.50;5028195;28;20446;-77
2021/12/08 07:48:07;;;;;;;13.60;10.60;;;1.50;84.50;;;-0.13;89.48;96612.06;5029844;28;20459;-77
2021/12/08 07:50:42;;;;;;;16.40;11.40;;;1.50;83.40;;;0.03;89.23;96615.53;5024028;28;20822;-77
2021/12/08 07:53:12;;;;;;;12.90;10.40;;;1.60;84.00;;;0.01;89.46;96614.91;5025709;28;20450;-76
2021/12/08 07:55:45;;;;;;;12.70;10.23;;;1.60;83.70;;;-0.16;89.23;96599.97;5020704;28;21010;-76
2021/12/08 07:58:15;;;;;;;13.30;10.37;;;1.60;83.10;;;0.05;89.39;96619.69;5026761;28;20474;-77
2021/12/08 08:00:47;;;;;;;14.53;10.90;;;1.60;84.00;;;-0.03;88.86;96612.63;5018151;28;20471;-77
2021/12/08 08:03:17;;;;;;;13.97;10.60;;;1.60;82.80;;;-0.20;89.38;96596.03;5025202;28;20548;-78
2021/12/08 08:05:49;;;;;;;14.27;10.87;;;1.50;83.70;;;-0.11;89.90;96609.22;5035270;28;20452;-76
2021/12/08 08:08:18;;;;;;;15.93;12.33;;;1.50;84.80;;;-0.02;89.83;96618.75;5022682;28;20532;-76
2021/12/08 08:10:50;;;;;;;11.73;10.23;;;1.60;84.50;;;-0.05;90.29;96601.38;5000136;28;20494;-77
2021/12/08 08:13:21;;;;;;;19.13;13.10;;;1.60;85.00;;;0.09;89.87;96626.25;5025546;28;20569;-77
2021/12/08 08:15:53;;;;;;;14.00;10.57;;;1.70;85.30;;;0.09;90.01;96628.91;5023668;28;20514;-77
2021/12/08 08:18:23;;;;;;;18.30;13.10;;;1.70;85.00;;;0.03;89.73;96612.88;5029887;28;20487;-78
2021/12/08 08:20:58;;;;;;;19.00;12.10;;;1.70;84.10;;;-0.10;90.99;96622.31;5025115;28;20451;-78
2021/12/08 08:23:28;;;;;;;17.60;12.50;;;1.60;86.00;;;-0.04;90.89;96626.91;5024127;28;20534;-77
2021/12/08 08:25:57;;;;;;;16.73;12.13;;;1.60;86.50;;;0.21;90.52;96634.59;5030077;28;21298;-76
2021/12/08 08:28:25;;;;;;;16.93;11.67;;;1.70;86.20;;;0.24;89.52;96626.28;5022724;28;20558;-75
2021/12/08 08:31:02;;;;;;;16.83;11.70;;;1.80;84.80;;;0.52;88.95;96619.47;5024383;28;20486;-76
2021/12/08 08:33:31;;;;;;;15.10;11.80;;;2.00;84.60;;;0.32;89.16;96604.09;5024412;28;20454;-75
2021/12/08 08:36:07;;;;;;;14.20;10.80;;;2.00;84.40;;;0.51;88.66;96623.94;5027158;28;20443;-76
2021/12/08 08:38:38;;;;;;;14.93;11.40;;;2.10;83.40;;;0.32;89.31;96604.09;5027363;28;20865;-75
2021/12/08 08:41:09;;;;;;;14.50;10.60;;;2.00;84.00;;;0.34;89.74;96619.84;5029859;28;20446;-75
2021/12/08 08:43:37;;;;;;;18.33;11.53;;;2.00;84.60;;;0.66;88.89;96609.78;5033167;28;20491;-76
2021/12/08 08:46:12;;;;;;;18.13;11.30;;;2.10;84.90;;;0.19;90.37;96612.69;5028827;28;20451;-75
2021/12/08 08:48:46;;;;;;;15.20;11.53;;;1.90;84.20;;;-0.18;91.70;96572.78;5027367;28;20498;-78
2021/12/08 08:51:21;;;;;;;14.40;11.40;;;1.70;86.70;;;0.04;91.42;96602.09;5027247;28;20454;-79
2021/12/08 08:53:52;;;;;;;14.97;12.10;;;1.70;87.70;;;0.04;91.75;96595.94;5028284;28;20459;-78
2021/12/08 08:56:27;;;;;;;14.57;11.83;;;1.70;88.30;;;0.35;91.17;96614.34;5028403;28;20500;-77
2021/12/08 08:59:00;;;;;;;13.40;10.73;;;1.80;88.40;;;0.15;91.62;96608.78;5030709;28;20462;-78
2021/12/08 09:01:33;;;;;;;16.73;12.30;;;1.80;87.40;;;0.31;91.97;96612.25;5031469;28;20450;-77
2021/12/08 09:04:07;;;;;;;13.60;11.40;;;1.80;88.70;;;0.09;92.30;96620.94;5033337;28;20542;-78
2021/12/08 09:06:40;;;;;;;19.07;13.40;;;1.70;88.60;;;0.17;92.26;96613.91;5026910;28;20542;-77
2021/12/08 09:09:11;;;;;;;15.60;11.20;;;1.70;89.60;;;-0.21;92.64;96593.56;5012435;28;20517;-78
2021/12/08 09:11:45;;;;;;;14.97;11.00;;;1.60;88.40;;;0.07;92.42;96622.13;5025501;28;20482;-76
2021/12/08 09:14:20;;;;;;;16.97;12.13;;;1.70;90.10;;;-0.02;93.04;96614.28;5021079;28;20463;-77
2021/12/08 09:16:53;;;;;;;21.05;17.00;;;1.70;90.00;;;0.00;93.50;96606.13;5021555;28;20481;-80
2021/12/08 09:19:25;;;;;;;20.50;13.93;;;1.60;90.70;;;0.17;92.61;96600.63;5024287;28;20689;-74
2021/12/08 09:22:02;;;;;;;19.13;13.07;;;1.70;90.20;;;0.03;92.82;96594.31;5032151;28;20498;-75
2021/12/08 09:24:36;;;;;;;16.87;11.70;;;1.70;89.30;;;0.12;92.64;96582.59;5025159;28;21154;-72
2021/12/08 09:27:07;;;;;;;16.80;12.60;;;1.70;90.40;;;-0.01;92.75;96573.44;5015352;28;20553;-72
2021/12/08 09:29:43;;;;;;;18.10;13.20;;;1.70;90.00;;;0.15;92.76;96579.56;5017245;28;20464;-71
2021/12/08 09:32:17;;;;;;;14.30;12.00;;;1.80;89.60;;;0.45;92.22;96571.53;5023651;28;20516;-71
2021/12/08 09:34:54;;;;;;;15.73;11.27;;;1.90;90.10;;;0.24;91.81;96562.50;5023194;28;20968;-71
2021/12/08 09:37:26;;;;;;;16.23;11.90;;;1.90;87.80;;;0.38;91.93;96570.63;5025535;28;20476;-73
2021/12/08 09:39:58;;;;;;;20.13;12.20;;;2.00;88.60;;;0.42;91.36;96570.06;5026677;28;20439;-72
2021/12/08 09:42:29;;;;;;;14.77;11.70;;;2.00;87.30;;;0.35;90.74;96571.00;5022584;28;20463;-73
2021/12/08 09:45:03;;;;;;;15.27;11.57;;;2.00;85.80;;;0.47;90.68;96571.38;5020534;28;20475;-72
2021/12/08 09:47:31;;;;;;;19.40;12.10;;;2.10;86.30;;;0.97;89.20;96547.53;5025869;28;20491;-73
2021/12/08 09:49:59;;;;;;;15.87;11.20;;;2.30;86.00;;;0.67;89.85;96544.97;5021205;28;20494;-72
2021/12/08 09:52:30;;;;;;;15.93;11.20;;;2.30;84.80;;;0.55;90.01;96549.97;5022300;28;20959;-72
2021/12/08 09:54:59;;;;;;;17.37;13.07;;;2.20;84.70;;;0.15;91.64;96553.00;5043781;28;20464;-71
2021/12/08 09:57:29;;;;;;;15.80;12.37;;;1.90;87.10;;;0.27;91.62;96553.31;5025910;28;21073;-71
2021/12/08 09:59:57;;;;;;;14.10;11.77;;;1.90;87.50;;;0.30;91.07;96544.16;5016605;28;20454;-72
2021/12/08 10:02:31;;;;;;;16.53;12.50;;;1.90;86.40;;;0.38;91.58;96536.91;5023545;28;20475;-71
2021/12/08 10:05:00;;;;;;;15.03;12.40;;;1.90;88.70;;;0.61;90.39;96527.13;5020580;28;21004;-71
2021/12/08 10:07:28;;;;;;;14.30;11.50;;;2.10;87.30;;;0.56;90.03;96527.69;5018620;28;20826;-72
2021/12/08 10:09:56;;;;;;;15.13;11.87;;;2.10;85.00;;;0.51;89.27;96514.97;5027238;28;23155;-74
2021/12/08 10:12:24;;;;;;;15.30;11.30;;;2.10;83.70;;;0.47;90.34;96510.25;5019733;28;20547;-72
2021/12/08 10:14:51;;;;;;;16.53;12.20;;;2.00;85.90;;;0.65;89.63;96510.63;5021864;28;20454;-72
2021/12/08 10:17:20;;;;;;;21.07;15.07;;;2.20;85.30;;;0.89;89.56;96513.09;5023292;28;20464;-72
2021/12/08 10:20:11;;;;;;;21.07;12.50;;;2.30;85.90;;;1.20;88.16;96514.56;5021788;28;20562;-73
2021/12/08 10:22:43;;;;;;;15.30;11.77;;;2.60;83.90;;;1.30;87.57;96493.78;5023320;28;20465;-73
2021/12/08 10:25:15;;;;;;;13.47;11.43;;;2.80;83.00;;;1.17;87.00;96509.66;5034173;28;20494;-72
2021/12/08 10:28:11;;;;;;;14.13;11.80;;;2.80;81.00;;;0.68;87.83;96486.31;5026868;28;20467;-73
2021/12/08 10:30:45;;;;;;;15.53;11.70;;;2.50;81.10;;;0.77;89.01;96483.53;5028181;28;20466;-72
2021/12/08 10:34:03;;;;;;;15.30;11.37;;;2.30;83.60;;;0.52;90.00;96484.72;5034483;28;20447;-72
2021/12/08 10:36:46;;;;;;;15.63;12.50;;;2.20;84.00;;;0.63;90.30;96462.16;5028072;28;20482;-72
2021/12/08 10:39:23;;;;;;;17.43;12.17;;;2.20;85.40;;;0.64;89.33;96454.97;5033003;28;20470;-73
2021/12/08 10:41:56;;;;;;;15.80;12.27;;;2.30;84.70;;;0.87;89.84;96467.25;5023782;28;20451;-71
2021/12/08 10:44:27;;;;;;;15.50;12.10;;;2.30;85.90;;;1.04;88.44;96481.91;5025617;28;21016;-72
2021/12/08 10:46:58;;;;;;;14.87;12.20;;;2.50;83.80;;;1.19;87.83;96495.13;5026295;28;20458;-72
2021/12/08 10:54:24;;;;;;;17.47;12.33;;;2.60;82.90;;;1.14;87.09;96510.84;5026910;28;20989;-71
2021/12/08 10:55:08;;;;;;;14.47;11.23;;;2.80;81.80;;;1.59;84.45;96512.38;5024547;28;20474;-72
2021/12/08 10:57:38;;;;;;;13.93;11.23;;;3.00;79.70;;;1.44;85.35;96534.63;5025292;28;20459;-73
2021/12/08 11:00:12;;;;;;;15.33;11.83;;;3.00;79.90;;;1.15;86.27;96533.78;5029765;28;20447;-73
2021/12/08 11:02:52;;;;;;;19.83;12.60;;;2.70;80.00;;;0.72;88.08;96536.44;5037722;28;20459;-72